Terminal Aerodrome Forecast
Issued by NWS Billings, MT

Home | Current Version | Previous Version | Graphics & Text | Print | Product List | Glossary On
Versions: 1 2 3 4 5 6 7 8 9 10 11 12 13 14 15 16 17 18 19 20 21 22 23 24 25 26 27 28 29 30
000
FTUS45 KBYZ 221735
TAFMLS
TAF
KMLS 221735Z 2218/2318 18008KT P6SM -SHRA BKN060
     FM222000 24010KT P6SM VCSH BKN080
     FM222300 24014KT P6SM BKN080
     FM230500 28020G30KT P6SM BKN080=

USA.gov is the U.S. government's official web portal to all federal, state and local government web resources and services.